createdAt,value
2022-12-04T00:00:24.933Z,99636.19
2022-12-04T00:02:51.464Z,99636.66
2022-12-04T00:05:18.239Z,99624.84
2022-12-04T00:07:46.187Z,99629.22
2022-12-04T00:10:12.829Z,99629.59
2022-12-04T00:12:39.332Z,99637.34
2022-12-04T00:17:53.773Z,99638.41
2022-12-04T00:20:20.359Z,99635.06
2022-12-04T00:22:48.260Z,99633.38
2022-12-04T00:25:15.031Z,99624.97
2022-12-04T00:27:41.534Z,99623.66
2022-12-04T00:30:08.780Z,99625.66
2022-12-04T00:32:35.304Z,99619.63
2022-12-04T00:35:01.814Z,99631.41
2022-12-04T00:37:28.339Z,99623.34
2022-12-04T00:39:56.355Z,99624.38
2022-12-04T00:42:23.137Z,99618.97
2022-12-04T00:44:49.682Z,99628.06
2022-12-04T00:47:16.196Z,99622.00
2022-12-04T00:49:42.694Z,99623.72
2022-12-04T00:52:09.261Z,99619.31
2022-12-04T00:54:35.749Z,99617.31
2022-12-04T00:57:03.716Z,99618.97
2022-12-04T00:59:30.242Z,99612.41
2022-12-04T01:01:56.721Z,99611.56
2022-12-04T01:04:23.298Z,99621.97
2022-12-04T01:06:49.805Z,99609.53
2022-12-04T01:09:16.384Z,99611.56
2022-12-04T01:11:42.914Z,99611.56
2022-12-04T01:14:11.049Z,99608.22
2022-12-04T01:16:39.547Z,99606.19
2022-12-04T01:19:08.887Z,99609.22
2022-12-04T01:21:36.182Z,99604.50
2022-12-04T01:24:03.211Z,99605.53
2022-12-04T01:26:30.018Z,99600.78
2022-12-04T01:28:56.703Z,99602.47
2022-12-04T01:31:25.216Z,99602.47
2022-12-04T01:33:52.053Z,99600.78
2022-12-04T01:36:20.723Z,99597.09
2022-12-04T01:38:47.228Z,99595.41
2022-12-04T01:41:16.687Z,99592.53
2022-12-04T01:43:43.625Z,99584.63
2022-12-04T01:46:10.782Z,99590.03
2022-12-04T01:48:42.353Z,99583.63
2022-12-04T01:51:17.146Z,99570.53
2022-12-04T01:53:48.748Z,99579.25
2022-12-04T01:56:16.808Z,99572.19
2022-12-04T01:58:48.362Z,99565.81
2022-12-04T02:01:14.895Z,99561.06
2022-12-04T02:03:42.995Z,99560.41
2022-12-04T02:06:09.747Z,99559.41
2022-12-04T02:08:37.412Z,99554.84
2022-12-04T02:11:18.565Z,99560.22
2022-12-04T02:13:53.131Z,99548.28
2022-12-04T02:16:25.550Z,99559.06
2022-12-04T02:19:00.446Z,99558.22
2022-12-04T02:21:33.728Z,99545.94
2022-12-04T02:24:21.349Z,99544.91
2022-12-04T02:26:53.230Z,99539.53
2022-12-04T02:29:30.274Z,99547.78
2022-12-04T02:32:02.881Z,99542.41
2022-12-04T02:34:35.283Z,99539.06
2022-12-04T02:37:08.420Z,99546.13
2022-12-04T02:39:40.604Z,99541.75
2022-12-04T02:42:12.447Z,99541.56
2022-12-04T02:44:45.072Z,99538.22
2022-12-04T02:47:14.658Z,99539.91
2022-12-04T02:49:44.901Z,99544.44
2022-12-04T02:52:14.386Z,99549.00
2022-12-04T02:54:45.654Z,99541.56
2022-12-04T02:57:16.777Z,99554.19
2022-12-04T02:59:46.405Z,99554.19
2022-12-04T03:02:19.600Z,99545.28
2022-12-04T03:04:49.035Z,99550.66
2022-12-04T03:07:20.290Z,99551.50
2022-12-04T03:09:51.173Z,99536.19
2022-12-04T03:12:24.621Z,99527.09
2022-12-04T03:14:57.083Z,99529.13
2022-12-04T03:17:28.582Z,99527.47
2022-12-04T03:19:59.764Z,99527.66
2022-12-04T03:22:27.584Z,99524.13
2022-12-04T03:24:56.624Z,99523.44
2022-12-04T03:27:27.725Z,99526.13
2022-12-04T03:30:01.545Z,99523.78
2022-12-04T03:32:33.471Z,99524.44
2022-12-04T03:35:05.317Z,99528.81
2022-12-04T03:37:39.502Z,99534.88
2022-12-04T03:40:14.695Z,99532.00
2022-12-04T03:42:47.801Z,99533.88
2022-12-04T03:45:21.982Z,99539.91
2022-12-04T03:47:56.729Z,99532.47
2022-12-04T03:50:32.169Z,99538.69
2022-12-04T03:53:05.403Z,99544.91
2022-12-04T03:55:39.253Z,99544.91
2022-12-04T03:58:12.809Z,99535.00
2022-12-04T04:00:42.868Z,99537.88
2022-12-04T04:03:13.995Z,99535.16
2022-12-04T04:05:44.890Z,99535.16
2022-12-04T04:08:16.010Z,99546.59
2022-12-04T04:10:42.456Z,99546.59
2022-12-04T04:13:12.647Z,99549.28
2022-12-04T04:15:45.874Z,99550.81
2022-12-04T04:18:12.475Z,99549.59
2022-12-04T04:20:44.168Z,99552.13
2022-12-04T04:23:11.917Z,99546.91
2022-12-04T04:25:42.009Z,99554.16
2022-12-04T04:28:27.882Z,99549.25
2022-12-04T04:30:59.472Z,99542.19
2022-12-04T04:33:28.078Z,99538.50
2022-12-04T04:36:00.222Z,99543.69
2022-12-04T04:38:31.810Z,99552.63
2022-12-04T04:41:04.123Z,99552.25
2022-12-04T04:43:36.569Z,99546.84
2022-12-04T04:46:08.261Z,99543.16
2022-12-04T04:48:39.145Z,99541.47
2022-12-04T04:51:06.345Z,99541.47
2022-12-04T04:53:36.665Z,99539.28
2022-12-04T04:56:05.506Z,99540.28
2022-12-04T04:58:32.050Z,99537.44
2022-12-04T05:01:02.551Z,99537.06
2022-12-04T05:03:31.581Z,99530.47
2022-12-04T05:05:58.142Z,99526.59
2022-12-04T05:08:24.709Z,99530.31
2022-12-04T05:10:51.268Z,99535.03
2022-12-04T05:13:18.616Z,99540.06
2022-12-04T05:15:45.695Z,99533.47
2022-12-04T05:18:12.273Z,99530.59
2022-12-04T05:20:40.867Z,99534.31
2022-12-04T05:23:07.375Z,99527.72
2022-12-04T05:25:33.904Z,99537.31
2022-12-04T05:28:00.422Z,99528.59
2022-12-04T05:30:26.939Z,99527.91
2022-12-04T05:32:53.408Z,99530.25
2022-12-04T05:35:19.911Z,99526.88
2022-12-04T05:37:47.745Z,99535.66
2022-12-04T05:40:14.430Z,99529.56
2022-12-04T05:42:41.115Z,99524.03
2022-12-04T05:45:08.581Z,99519.47
2022-12-04T05:47:38.204Z,99519.63
2022-12-04T05:50:05.860Z,99517.81
2022-12-04T05:52:32.380Z,99515.78
2022-12-04T05:55:00.247Z,99517.44
2022-12-04T05:57:29.821Z,99510.38
2022-12-04T05:59:56.975Z,99518.28
2022-12-04T06:02:23.794Z,99515.78
2022-12-04T06:04:50.555Z,99509.72
2022-12-04T06:07:17.065Z,99508.72
2022-12-04T06:09:43.639Z,99500.78
2022-12-04T06:12:11.480Z,99505.00
2022-12-04T06:14:39.967Z,99501.28
2022-12-04T06:17:07.072Z,99502.13
2022-12-04T06:19:33.574Z,99500.91
2022-12-04T06:22:00.093Z,99502.94
2022-12-04T06:24:26.651Z,99508.66
2022-12-04T06:29:43.822Z,99500.06
2022-12-04T06:32:10.349Z,99506.28
2022-12-04T06:34:36.839Z,99509.28
2022-12-04T06:37:03.438Z,99512.81
2022-12-04T06:39:29.939Z,99528.81
2022-12-04T06:41:56.455Z,99511.47
2022-12-04T06:44:22.978Z,99509.94
2022-12-04T06:46:50.845Z,99513.47
2022-12-04T06:49:17.336Z,99516.34
2022-12-04T06:51:43.858Z,99526.75
2022-12-04T06:54:10.616Z,99534.50
2022-12-04T06:56:37.161Z,99527.25
2022-12-04T06:59:04.633Z,99531.81
2022-12-04T07:01:33.131Z,99533.47
2022-12-04T07:04:02.394Z,99539.53
2022-12-04T07:06:31.015Z,99534.81
2022-12-04T07:08:59.816Z,99538.16
2022-12-04T07:11:27.059Z,99519.94
2022-12-04T07:13:55.022Z,99519.56
2022-12-04T07:16:23.327Z,99524.97
2022-12-04T07:18:50.388Z,99533.72
2022-12-04T07:21:20.766Z,99532.69
2022-12-04T07:23:49.663Z,99532.88
2022-12-04T07:26:16.243Z,99523.28
2022-12-04T07:28:42.997Z,99529.34
2022-12-04T07:31:11.685Z,99525.63
2022-12-04T07:33:38.349Z,99533.34
2022-12-04T07:36:07.634Z,99525.91
2022-12-04T07:38:35.538Z,99531.97
2022-12-04T07:41:04.549Z,99530.13
2022-12-04T07:43:32.108Z,99527.25
2022-12-04T07:45:59.704Z,99527.88
2022-12-04T07:48:31.708Z,99523.97
2022-12-04T07:51:04.057Z,99524.84
2022-12-04T07:53:30.557Z,99521.47
2022-12-04T07:55:58.425Z,99520.63
2022-12-04T07:58:24.996Z,99527.09
2022-12-04T08:00:51.570Z,99522.41
2022-12-04T08:03:18.088Z,99531.53
2022-12-04T08:05:44.592Z,99522.41
2022-12-04T08:08:11.244Z,99524.78
2022-12-04T08:10:39.718Z,99523.38
2022-12-04T08:13:07.662Z,99518.81
2022-12-04T08:15:34.262Z,99527.00
2022-12-04T08:18:01.230Z,99523.59
2022-12-04T08:20:27.868Z,99526.94
2022-12-04T08:22:54.506Z,99535.66
2022-12-04T08:25:21.082Z,99528.59
2022-12-04T08:27:47.884Z,99528.59
2022-12-04T08:30:16.478Z,99528.25
2022-12-04T08:32:43.088Z,99533.16
2022-12-04T08:35:09.675Z,99535.13
2022-12-04T08:37:36.269Z,99531.22
2022-12-04T08:40:03.307Z,99533.91
2022-12-04T08:42:30.063Z,99532.88
2022-12-04T08:44:56.675Z,99529.19
2022-12-04T08:47:24.611Z,99528.81
2022-12-04T08:49:51.237Z,99530.47
2022-12-04T08:52:17.813Z,99524.69
2022-12-04T08:54:44.566Z,99533.28
2022-12-04T08:57:11.173Z,99529.38
2022-12-04T08:59:37.749Z,99530.19
2022-12-04T09:02:04.513Z,99529.00
2022-12-04T09:04:34.509Z,99529.00
2022-12-04T09:07:01.323Z,99525.28
2022-12-04T09:09:28.090Z,99523.34
2022-12-04T09:11:54.677Z,99520.06
2022-12-04T09:14:21.218Z,99519.31
2022-12-04T09:16:47.795Z,99511.88
2022-12-04T09:19:14.405Z,99512.16
2022-12-04T09:21:42.418Z,99518.19
2022-12-04T09:24:08.959Z,99513.47
2022-12-04T09:26:35.630Z,99514.09
2022-12-04T09:29:04.309Z,99522.19
2022-12-04T09:31:31.716Z,99517.44
2022-12-04T09:33:58.802Z,99510.00
2022-12-04T09:36:25.390Z,99513.34
2022-12-04T09:38:54.344Z,99520.44
2022-12-04T09:41:50.728Z,99522.09
2022-12-04T09:44:21.416Z,99517.91
2022-12-04T09:46:52.042Z,99530.84
2022-12-04T09:49:23.831Z,99525.25
2022-12-04T09:51:52.746Z,99521.72
2022-12-04T09:54:25.907Z,99521.34
2022-12-04T09:56:55.210Z,99521.78
2022-12-04T09:59:24.685Z,99518.91
2022-12-04T10:01:56.230Z,99507.75
2022-12-04T10:04:22.956Z,99507.75
2022-12-04T10:06:58.479Z,99508.00
2022-12-04T10:09:38.901Z,99512.38
2022-12-04T10:12:19.321Z,99512.38
2022-12-04T10:15:08.735Z,99505.75
2022-12-04T10:17:55.604Z,99505.84
2022-12-04T10:20:39.840Z,99500.88
2022-12-04T10:23:17.909Z,99493.88
2022-12-04T10:25:46.486Z,99490.16
2022-12-04T10:28:23.278Z,99486.06
2022-12-04T10:30:51.283Z,99497.28
2022-12-04T10:33:23.535Z,99489.66
2022-12-04T10:35:52.593Z,99489.66
2022-12-04T10:38:28.826Z,99482.81
2022-12-04T10:41:02.583Z,99482.63
2022-12-04T10:43:36.435Z,99491.19
2022-12-04T10:46:03.046Z,99491.56
2022-12-04T10:48:34.998Z,99473.97
2022-12-04T10:51:01.653Z,99477.84
2022-12-04T10:53:31.646Z,99478.72
2022-12-04T10:56:12.683Z,99475.00
2022-12-04T10:58:39.227Z,99469.59
2022-12-04T11:01:08.348Z,99475.81
2022-12-04T11:03:35.440Z,99472.66
2022-12-04T11:06:04.471Z,99472.03
2022-12-04T11:08:35.695Z,99470.34
2022-12-04T11:11:02.706Z,99474.78
2022-12-04T11:13:30.804Z,99484.56
2022-12-04T11:15:58.989Z,99481.28
2022-12-04T11:18:27.655Z,99486.50
2022-12-04T11:20:57.902Z,99485.91
2022-12-04T11:23:25.480Z,99490.66
2022-12-04T11:25:59.391Z,99490.47
2022-12-04T11:28:47.887Z,99489.00
2022-12-04T11:31:20.310Z,99485.91
2022-12-04T11:33:49.934Z,99484.91
2022-12-04T11:36:21.543Z,99478.81
2022-12-04T11:38:49.414Z,99473.44
2022-12-04T11:41:25.468Z,99471.38
2022-12-04T11:43:58.233Z,99479.09
2022-12-04T11:46:28.588Z,99473.13
2022-12-04T11:48:55.622Z,99474.19
2022-12-04T11:51:34.383Z,99469.41
2022-12-04T11:54:06.866Z,99472.38
2022-12-04T11:56:36.148Z,99470.75
2022-12-04T11:59:28.586Z,99465.00
2022-12-04T12:02:10.398Z,99465.06
2022-12-04T12:05:02.903Z,99466.38
2022-12-04T12:07:43.187Z,99455.59
2022-12-04T12:10:16.781Z,99454.38
2022-12-04T12:12:56.385Z,99454.38
2022-12-04T12:15:38.773Z,99453.13
2022-12-04T12:18:22.458Z,99443.56
2022-12-04T12:20:57.519Z,99446.28
2022-12-04T12:23:41.168Z,99443.16
2022-12-04T12:26:11.526Z,99443.16
2022-12-04T12:28:58.248Z,99441.91
2022-12-04T12:31:40.633Z,99428.84
2022-12-04T12:34:13.067Z,99431.13
2022-12-04T12:36:44.179Z,99424.91
2022-12-04T12:39:12.581Z,99419.09
2022-12-04T12:41:47.545Z,99421.81
2022-12-04T12:44:19.835Z,99419.09
2022-12-04T12:46:51.356Z,99418.72
2022-12-04T12:49:21.260Z,99407.47
2022-12-04T12:51:52.696Z,99408.75
2022-12-04T12:54:30.924Z,99421.25
2022-12-04T12:57:16.979Z,99417.50
2022-12-04T12:59:47.912Z,99413.53
2022-12-04T13:02:25.354Z,99407.28
2022-12-04T13:04:55.362Z,99406.25
2022-12-04T13:07:29.297Z,99406.06
2022-12-04T13:10:02.957Z,99398.81
2022-12-04T13:12:35.180Z,99396.34
2022-12-04T13:15:01.872Z,99396.53
2022-12-04T13:17:35.210Z,99398.88
2022-12-04T13:20:10.268Z,99384.91
2022-12-04T13:22:46.861Z,99388.25
2022-12-04T13:25:29.801Z,99386.56
2022-12-04T13:28:07.803Z,99390.09
2022-12-04T13:30:44.273Z,99389.28
2022-12-04T13:33:28.479Z,99387.59
2022-12-04T13:36:14.648Z,99381.81
2022-12-04T13:38:58.288Z,99377.00
2022-12-04T13:41:27.572Z,99388.47
2022-12-04T13:43:55.206Z,99382.66
2022-12-04T13:46:28.702Z,99386.38
2022-12-04T13:49:08.007Z,99383.03
2022-12-04T13:51:36.868Z,99395.53
2022-12-04T13:54:21.442Z,99392.00
2022-12-04T13:56:50.416Z,99402.63
2022-12-04T13:59:35.611Z,99384.72
2022-12-04T14:02:08.206Z,99392.03
2022-12-04T14:04:44.068Z,99394.94
2022-12-04T14:07:25.085Z,99394.13
2022-12-04T14:09:53.743Z,99396.41
2022-12-04T14:12:27.072Z,99389.31
2022-12-04T14:14:57.519Z,99389.31
2022-12-04T14:17:26.294Z,99403.47
2022-12-04T14:19:56.178Z,99408.84
2022-12-04T14:22:29.384Z,99408.34
2022-12-04T14:25:06.432Z,99401.03
2022-12-04T14:27:42.336Z,99406.84
2022-12-04T14:30:17.801Z,99406.63
2022-12-04T14:32:44.852Z,99404.59
2022-12-04T14:35:15.527Z,99404.59
2022-12-04T14:37:50.283Z,99401.66
2022-12-04T14:40:21.463Z,99398.72
2022-12-04T14:42:49.072Z,99394.13
2022-12-04T14:45:31.256Z,99392.66
2022-12-04T14:48:18.278Z,99395.53
2022-12-04T14:50:52.108Z,99387.84
2022-12-04T14:53:30.864Z,99389.13
2022-12-04T14:56:12.269Z,99382.00
2022-12-04T14:58:39.083Z,99387.41
2022-12-04T15:01:16.002Z,99385.38
2022-12-04T15:03:44.765Z,99380.34
2022-12-04T15:06:19.917Z,99375.75
2022-12-04T15:08:49.406Z,99376.59
2022-12-04T15:11:18.459Z,99371.19
2022-12-04T15:13:45.081Z,99376.59
2022-12-04T15:16:16.742Z,99374.53
2022-12-04T15:18:53.750Z,99375.78
2022-12-04T15:21:22.197Z,99379.34
2022-12-04T15:23:49.159Z,99374.13
2022-12-04T15:26:18.258Z,99377.88
2022-12-04T15:28:50.309Z,99374.53
2022-12-04T15:31:20.069Z,99369.13
2022-12-04T15:33:48.796Z,99372.88
2022-12-04T15:36:19.861Z,99368.31
2022-12-04T15:38:48.998Z,99360.34
2022-12-04T15:41:28.616Z,99361.41
2022-12-04T15:43:55.122Z,99357.03
2022-12-04T15:46:24.929Z,99368.91
2022-12-04T15:48:51.538Z,99365.78
2022-12-04T15:51:21.123Z,99360.97
2022-12-04T15:53:49.011Z,99363.69
2022-12-04T15:56:18.504Z,99358.69
2022-12-04T15:58:54.442Z,99367.66
2022-12-04T16:01:21.546Z,99363.69
2022-12-04T16:03:50.380Z,99359.94
2022-12-04T16:06:19.445Z,99363.91
2022-12-04T16:08:49.550Z,99359.91
2022-12-04T16:11:28.275Z,99363.66
2022-12-04T16:14:14.094Z,99361.16
2022-12-04T16:16:43.768Z,99362.00
2022-12-04T16:19:16.075Z,99364.91
2022-12-04T16:21:42.920Z,99369.06
2022-12-04T16:24:12.009Z,99364.69
2022-12-04T16:26:38.512Z,99366.97
2022-12-04T16:29:05.004Z,99361.56
2022-12-04T16:31:31.682Z,99364.53
2022-12-04T16:33:58.244Z,99370.72
2022-12-04T16:36:24.828Z,99363.66
2022-12-04T16:38:51.330Z,99366.53
2022-12-04T16:41:20.076Z,99362.75
2022-12-04T16:43:54.706Z,99360.25
2022-12-04T16:46:23.353Z,99368.56
2022-12-04T16:48:49.878Z,99369.59
2022-12-04T16:51:18.098Z,99365.66
2022-12-04T16:53:44.678Z,99368.59
2022-12-04T16:56:12.248Z,99368.16
2022-12-04T16:58:40.110Z,99364.63
2022-12-04T17:01:18.034Z,99364.06
2022-12-04T17:03:44.671Z,99363.13
2022-12-04T17:06:11.281Z,99359.97
2022-12-04T17:08:37.794Z,99364.75
2022-12-04T17:11:04.380Z,99361.63
2022-12-04T17:13:30.964Z,99365.63
2022-12-04T17:15:59.022Z,99359.16
2022-12-04T17:18:25.539Z,99364.16
2022-12-04T17:20:52.045Z,99363.34
2022-12-04T17:23:18.549Z,99362.50
2022-12-04T17:25:45.081Z,99364.16
2022-12-04T17:28:11.593Z,99360.03
2022-12-04T17:30:38.108Z,99358.34
2022-12-04T17:33:05.960Z,99355.84
2022-12-04T17:35:32.573Z,99356.28
2022-12-04T17:38:04.045Z,99347.34
2022-12-04T17:40:32.341Z,99356.28
2022-12-04T17:42:58.865Z,99341.28
2022-12-04T17:45:25.390Z,99347.97
2022-12-04T17:47:51.935Z,99340.47
2022-12-04T17:50:19.900Z,99345.28
2022-12-04T17:52:46.474Z,99347.56
2022-12-04T17:55:13.113Z,99345.91
2022-12-04T17:57:39.620Z,99340.06
2022-12-04T18:00:07.702Z,99341.09
2022-12-04T18:02:34.278Z,99351.31
2022-12-04T18:05:00.799Z,99348.38
2022-12-04T18:07:30.367Z,99342.97
2022-12-04T18:09:57.204Z,99339.66
2022-12-04T18:12:23.894Z,99341.91
2022-12-04T18:14:50.389Z,99339.63
2022-12-04T18:17:16.986Z,99347.94
2022-12-04T18:19:43.635Z,99346.69
2022-12-04T18:22:10.155Z,99346.25
2022-12-04T18:24:38.414Z,99344.38
2022-12-04T18:27:04.969Z,99344.16
2022-12-04T18:29:31.556Z,99342.91
2022-12-04T18:31:58.144Z,99346.63
2022-12-04T18:34:24.780Z,99347.41
2022-12-04T18:36:51.628Z,99339.06
2022-12-04T18:39:21.042Z,99342.38
2022-12-04T18:41:49.209Z,99342.34
2022-12-04T18:44:16.859Z,99344.44
2022-12-04T18:46:43.823Z,99341.91
2022-12-04T18:49:11.141Z,99346.91
2022-12-04T18:51:39.439Z,99348.56
2022-12-04T18:54:08.070Z,99339.03
2022-12-04T18:56:35.427Z,99339.03
2022-12-04T18:59:06.129Z,99334.88
2022-12-04T19:01:32.844Z,99347.13
2022-12-04T19:04:01.540Z,99344.44
2022-12-04T19:06:29.594Z,99344.44
2022-12-04T19:08:58.024Z,99338.81
2022-12-04T19:11:24.571Z,99341.94
2022-12-04T19:13:51.107Z,99339.47
2022-12-04T19:16:19.305Z,99338.84
2022-12-04T19:18:46.624Z,99333.63
2022-12-04T19:21:14.067Z,99332.75
2022-12-04T19:23:41.015Z,99339.78
2022-12-04T19:26:07.946Z,99338.94
2022-12-04T19:28:35.276Z,99339.53
2022-12-04T19:31:01.806Z,99340.53
2022-12-04T19:33:29.741Z,99344.34
2022-12-04T19:35:57.951Z,99341.03
2022-12-04T19:38:24.715Z,99334.75
2022-12-04T19:41:02.152Z,99339.66
2022-12-04T19:43:28.713Z,99333.22
2022-12-04T19:45:55.251Z,99336.66
2022-12-04T19:48:21.787Z,99342.44
2022-12-04T19:50:49.662Z,99335.19
2022-12-04T19:53:16.165Z,99343.56
2022-12-04T19:55:42.722Z,99341.06
2022-12-04T19:58:09.202Z,99341.69
2022-12-04T20:00:35.704Z,99347.72
2022-12-04T20:03:02.251Z,99345.22
2022-12-04T20:05:28.838Z,99343.94
2022-12-04T20:10:23.290Z,99342.69
2022-12-04T20:12:49.818Z,99341.66
2022-12-04T20:15:16.396Z,99352.88
2022-12-04T20:17:42.904Z,99348.13
2022-12-04T20:20:09.756Z,99348.56
2022-12-04T20:22:36.280Z,99344.81
2022-12-04T20:25:04.825Z,99354.38
2022-12-04T20:27:31.347Z,99349.75
2022-12-04T20:29:57.961Z,99354.75
2022-12-04T20:32:24.668Z,99338.78
2022-12-04T20:34:51.195Z,99350.63
2022-12-04T20:37:17.757Z,99344.44
2022-12-04T20:39:44.334Z,99351.06
2022-12-04T20:42:12.313Z,99346.03
2022-12-04T20:44:38.820Z,99344.28
2022-12-04T20:47:05.422Z,99342.13
2022-12-04T20:49:32.066Z,99345.00
2022-12-04T20:51:58.573Z,99343.28
2022-12-04T20:54:25.196Z,99341.16
2022-12-04T20:56:52.065Z,99332.41
2022-12-04T20:59:21.557Z,99332.63
2022-12-04T21:01:48.305Z,99333.66
2022-12-04T21:04:15.354Z,99332.41
2022-12-04T21:06:42.166Z,99324.50
2022-12-04T21:09:11.690Z,99318.28
2022-12-04T21:11:39.735Z,99321.59
2022-12-04T21:14:07.910Z,99324.09
2022-12-04T21:16:35.886Z,99329.31
2022-12-04T21:19:02.869Z,99323.28
2022-12-04T21:21:29.447Z,99321.19
2022-12-04T21:23:55.948Z,99328.69
2022-12-04T21:26:22.487Z,99332.41
2022-12-04T21:28:49.009Z,99322.00
2022-12-04T21:31:15.611Z,99311.34
2022-12-04T21:33:43.490Z,99312.34
2022-12-04T21:36:10.205Z,99306.53
2022-12-04T21:38:38.223Z,99304.03
2022-12-04T21:41:06.500Z,99302.38
2022-12-04T21:43:34.002Z,99304.03
2022-12-04T21:46:08.819Z,99298.63
2022-12-04T21:48:36.302Z,99295.25
2022-12-04T21:51:16.863Z,99283.19
2022-12-04T21:53:53.385Z,99292.72
2022-12-04T21:56:20.315Z,99288.34
2022-12-04T21:58:46.798Z,99290.69
2022-12-04T22:01:15.204Z,99298.78
2022-12-04T22:03:41.916Z,99292.72
2022-12-04T22:06:10.019Z,99298.78
2022-12-04T22:08:37.782Z,99300.19
2022-12-04T22:11:06.369Z,99298.09
2022-12-04T22:13:33.037Z,99299.28
2022-12-04T22:16:02.997Z,99300.97
2022-12-04T22:18:29.689Z,99291.84
2022-12-04T22:20:56.283Z,99294.16
2022-12-04T22:23:24.309Z,99295.41
2022-12-04T22:25:50.959Z,99291.72
2022-12-04T22:28:17.606Z,99294.41
2022-12-04T22:30:44.162Z,99297.75
2022-12-04T22:33:10.795Z,99301.47
2022-12-04T22:35:37.332Z,99294.41
2022-12-04T22:38:04.030Z,99293.53
2022-12-04T22:40:32.011Z,99295.94
2022-12-04T22:42:58.610Z,99299.34
2022-12-04T22:45:25.227Z,99288.63
2022-12-04T22:47:51.992Z,99296.81
2022-12-04T22:50:18.810Z,99293.47
2022-12-04T22:52:45.420Z,99299.50
2022-12-04T22:55:11.960Z,99286.00
2022-12-04T22:57:39.961Z,99291.00
2022-12-04T23:00:07.849Z,99294.72
2022-12-04T23:02:34.536Z,99298.50
2022-12-04T23:05:01.195Z,99292.72
2022-12-04T23:07:27.919Z,99295.00
2022-12-04T23:09:54.695Z,99285.03
2022-12-04T23:12:21.410Z,99284.41
2022-12-04T23:14:49.546Z,99287.66
2022-12-04T23:17:16.165Z,99296.06
2022-12-04T23:19:42.786Z,99294.00
2022-12-04T23:22:09.448Z,99297.78
2022-12-04T23:24:36.065Z,99300.72
2022-12-04T23:27:02.594Z,99294.00
2022-12-04T23:29:52.302Z,99287.31
2022-12-04T23:32:17.202Z,99287.78
2022-12-04T23:34:43.853Z,99284.09
2022-12-04T23:37:10.433Z,99290.56
2022-12-04T23:39:36.941Z,99289.94
2022-12-04T23:42:03.900Z,99285.38
2022-12-04T23:44:30.451Z,99280.41
2022-12-04T23:46:57.057Z,99278.72
2022-12-04T23:49:24.971Z,99286.22
2022-12-04T23:51:51.575Z,99287.47
2022-12-04T23:54:18.114Z,99300.41
2022-12-04T23:56:44.649Z,99301.47
2022-12-04T23:59:11.198Z,99286.28
